Tiffany, Colorado
Current Conditions -  °F | °C
As of 6:53 PM on Friday 24 Oct 2014 (Local Time) from KDRO Reporting Station
Clear Clear  
Wind Chill: 61°   Ceiling: Unl
Heat Index: 61°   Visibility: 10mi
Dew Point: 33°   Wind: 7mph
Humidity: 35%   Direction: 200°SSW
Pressure: 30.32"   Gusts: NA
Location:  37.0891°N, 107.649°W
Report Text: KDRO 250053Z AUTO 20006KT 10SM CLR 16/01 A3032 RMK AO2 SLP234 T01610006
Loading
Personal Weather Stations






























Interactive Weather Map
Tropical Storm Tracking
New forecast layout! Learn more

10-Day Weather Forecast

Advertisements
Track Severe Weather on mobile